Terminal Aerodrome Forecast
Issued by NWS

Home | Current Version | Previous Version | Text Only | Print | Product List | Glossary On
Versions: 1 2 3 4 5 6 7 8 9 10 11 12 13 14 15 16 17 18 19 20 21 22 23 24 25 26
331
FTUS46 KOTX 181739
TAFCOE
TAF
KCOE 181739Z 1818/1918 18007KT P6SM BKN050 OVC100
     FM182000 20008KT P6SM -RA OVC040
     FM190200 20010KT P6SM -SHRA OVC060
     FM190800 21011KT P6SM OVC070 WS020/22045KT
     FM191300 20010KT P6SM -SHRA OVC040=

USA.gov is the U.S. government's official web portal to all federal, state and local government web resources and services.